sensor_id;sensor_type;location;lat;lon;timestamp;P1;durP1;ratioP1;P2;durP2;ratioP2
18596;SDS011;9428;50.950;6.912;2024-01-25T00:00:00;48.38;;;7.32;;
18596;SDS011;9428;50.950;6.912;2024-01-25T00:02:48;36.10;;;7.30;;
18596;SDS011;9428;50.950;6.912;2024-01-25T00:05:36;44.83;;;7.13;;
18596;SDS011;9428;50.950;6.912;2024-01-25T00:08:23;38.58;;;7.15;;
18596;SDS011;9428;50.950;6.912;2024-01-25T00:11:11;40.03;;;7.35;;
18596;SDS011;9428;50.950;6.912;2024-01-25T00:13:58;36.08;;;7.95;;
18596;SDS011;9428;50.950;6.912;2024-01-25T00:16:45;40.17;;;7.70;;
18596;SDS011;9428;50.950;6.912;2024-01-25T00:19:34;39.53;;;7.75;;
18596;SDS011;9428;50.950;6.912;2024-01-25T00:22:22;36.92;;;6.68;;
18596;SDS011;9428;50.950;6.912;2024-01-25T00:25:09;51.35;;;6.80;;
18596;SDS011;9428;50.950;6.912;2024-01-25T00:27:57;35.13;;;6.25;;
18596;SDS011;9428;50.950;6.912;2024-01-25T00:30:44;41.20;;;6.47;;
18596;SDS011;9428;50.950;6.912;2024-01-25T00:33:31;36.35;;;6.78;;
18596;SDS011;9428;50.950;6.912;2024-01-25T00:36:21;47.95;;;7.70;;
18596;SDS011;9428;50.950;6.912;2024-01-25T00:39:09;34.40;;;6.80;;
18596;SDS011;9428;50.950;6.912;2024-01-25T00:41:57;39.85;;;7.30;;
18596;SDS011;9428;50.950;6.912;2024-01-25T00:44:50;45.85;;;7.57;;
18596;SDS011;9428;50.950;6.912;2024-01-25T00:47:38;40.20;;;8.27;;
18596;SDS011;9428;50.950;6.912;2024-01-25T00:50:26;34.88;;;7.35;;
18596;SDS011;9428;50.950;6.912;2024-01-25T00:53:16;37.65;;;7.07;;
18596;SDS011;9428;50.950;6.912;2024-01-25T00:56:05;37.25;;;6.90;;
18596;SDS011;9428;50.950;6.912;2024-01-25T00:58:53;37.08;;;7.40;;
18596;SDS011;9428;50.950;6.912;2024-01-25T01:01:41;37.15;;;6.47;;
18596;SDS011;9428;50.950;6.912;2024-01-25T01:04:31;46.13;;;6.63;;
18596;SDS011;9428;50.950;6.912;2024-01-25T01:07:19;47.63;;;6.50;;
18596;SDS011;9428;50.950;6.912;2024-01-25T01:10:08;39.40;;;7.32;;
18596;SDS011;9428;50.950;6.912;2024-01-25T01:12:56;44.03;;;7.57;;
18596;SDS011;9428;50.950;6.912;2024-01-25T01:15:44;32.95;;;6.20;;
18596;SDS011;9428;50.950;6.912;2024-01-25T01:18:31;42.00;;;6.38;;
18596;SDS011;9428;50.950;6.912;2024-01-25T01:21:19;33.08;;;7.00;;
18596;SDS011;9428;50.950;6.912;2024-01-25T01:24:07;33.77;;;6.87;;
18596;SDS011;9428;50.950;6.912;2024-01-25T01:26:56;42.45;;;7.25;;
18596;SDS011;9428;50.950;6.912;2024-01-25T01:29:44;37.03;;;7.18;;
18596;SDS011;9428;50.950;6.912;2024-01-25T01:32:32;48.72;;;7.95;;
18596;SDS011;9428;50.950;6.912;2024-01-25T01:35:19;38.17;;;6.60;;
18596;SDS011;9428;50.950;6.912;2024-01-25T01:38:06;52.25;;;8.13;;
18596;SDS011;9428;50.950;6.912;2024-01-25T01:40:54;44.58;;;7.20;;
18596;SDS011;9428;50.950;6.912;2024-01-25T01:43:43;37.63;;;6.43;;
18596;SDS011;9428;50.950;6.912;2024-01-25T01:46:31;37.75;;;7.22;;
18596;SDS011;9428;50.950;6.912;2024-01-25T01:49:22;42.20;;;7.28;;
18596;SDS011;9428;50.950;6.912;2024-01-25T01:52:09;49.47;;;7.13;;
18596;SDS011;9428;50.950;6.912;2024-01-25T01:54:59;40.05;;;6.38;;
18596;SDS011;9428;50.950;6.912;2024-01-25T01:57:47;43.97;;;7.85;;
18596;SDS011;9428;50.950;6.912;2024-01-25T02:00:36;35.60;;;6.37;;
18596;SDS011;9428;50.950;6.912;2024-01-25T02:03:25;44.55;;;7.72;;
18596;SDS011;9428;50.950;6.912;2024-01-25T02:06:12;35.53;;;6.63;;
18596;SDS011;9428;50.950;6.912;2024-01-25T02:09:00;36.40;;;7.30;;
18596;SDS011;9428;50.950;6.912;2024-01-25T02:11:48;38.13;;;7.10;;
18596;SDS011;9428;50.950;6.912;2024-01-25T02:14:45;46.07;;;6.80;;
18596;SDS011;9428;50.950;6.912;2024-01-25T02:17:34;33.20;;;6.37;;
18596;SDS011;9428;50.950;6.912;2024-01-25T02:20:22;41.88;;;6.90;;
18596;SDS011;9428;50.950;6.912;2024-01-25T02:23:12;27.37;;;5.60;;
18596;SDS011;9428;50.950;6.912;2024-01-25T02:25:59;36.22;;;5.95;;
18596;SDS011;9428;50.950;6.912;2024-01-25T02:28:46;33.60;;;6.28;;
18596;SDS011;9428;50.950;6.912;2024-01-25T02:31:34;38.83;;;6.13;;
18596;SDS011;9428;50.950;6.912;2024-01-25T02:34:21;45.72;;;7.32;;
18596;SDS011;9428;50.950;6.912;2024-01-25T02:37:08;38.05;;;6.90;;
18596;SDS011;9428;50.950;6.912;2024-01-25T02:39:59;30.30;;;6.00;;
18596;SDS011;9428;50.950;6.912;2024-01-25T02:42:46;37.53;;;6.68;;
18596;SDS011;9428;50.950;6.912;2024-01-25T02:45:33;30.13;;;6.30;;
18596;SDS011;9428;50.950;6.912;2024-01-25T02:48:21;40.20;;;6.55;;
18596;SDS011;9428;50.950;6.912;2024-01-25T02:51:08;38.73;;;6.20;;
18596;SDS011;9428;50.950;6.912;2024-01-25T02:53:57;38.27;;;7.30;;
18596;SDS011;9428;50.950;6.912;2024-01-25T02:56:46;40.13;;;7.13;;
18596;SDS011;9428;50.950;6.912;2024-01-25T02:59:36;38.97;;;7.10;;
18596;SDS011;9428;50.950;6.912;2024-01-25T03:02:23;37.85;;;7.13;;
18596;SDS011;9428;50.950;6.912;2024-01-25T03:05:11;40.47;;;6.47;;
18596;SDS011;9428;50.950;6.912;2024-01-25T03:07:58;43.07;;;7.20;;
18596;SDS011;9428;50.950;6.912;2024-01-25T03:10:47;34.80;;;6.20;;
18596;SDS011;9428;50.950;6.912;2024-01-25T03:13:37;48.30;;;8.40;;
18596;SDS011;9428;50.950;6.912;2024-01-25T03:16:24;29.10;;;6.28;;
18596;SDS011;9428;50.950;6.912;2024-01-25T03:19:12;40.38;;;6.57;;
18596;SDS011;9428;50.950;6.912;2024-01-25T03:21:59;51.22;;;9.05;;
18596;SDS011;9428;50.950;6.912;2024-01-25T03:24:47;41.30;;;6.90;;
18596;SDS011;9428;50.950;6.912;2024-01-25T03:27:35;40.23;;;9.03;;
18596;SDS011;9428;50.950;6.912;2024-01-25T03:30:23;39.55;;;7.50;;
18596;SDS011;9428;50.950;6.912;2024-01-25T03:33:11;43.33;;;8.87;;
18596;SDS011;9428;50.950;6.912;2024-01-25T03:36:01;40.05;;;7.47;;
18596;SDS011;9428;50.950;6.912;2024-01-25T03:38:51;39.93;;;7.87;;
18596;SDS011;9428;50.950;6.912;2024-01-25T03:41:38;41.70;;;7.18;;
18596;SDS011;9428;50.950;6.912;2024-01-25T03:44:26;41.97;;;7.88;;
18596;SDS011;9428;50.950;6.912;2024-01-25T03:47:15;40.67;;;7.05;;
18596;SDS011;9428;50.950;6.912;2024-01-25T03:50:02;34.97;;;7.43;;
18596;SDS011;9428;50.950;6.912;2024-01-25T03:52:50;43.35;;;7.95;;
18596;SDS011;9428;50.950;6.912;2024-01-25T03:55:37;39.67;;;7.07;;
18596;SDS011;9428;50.950;6.912;2024-01-25T03:58:25;38.50;;;6.18;;
18596;SDS011;9428;50.950;6.912;2024-01-25T04:01:12;41.93;;;8.20;;
18596;SDS011;9428;50.950;6.912;2024-01-25T04:04:04;46.17;;;7.60;;
18596;SDS011;9428;50.950;6.912;2024-01-25T04:06:53;35.50;;;7.43;;
18596;SDS011;9428;50.950;6.912;2024-01-25T04:09:43;40.75;;;8.70;;
18596;SDS011;9428;50.950;6.912;2024-01-25T04:12:31;35.83;;;7.87;;
18596;SDS011;9428;50.950;6.912;2024-01-25T04:15:19;44.83;;;7.63;;
18596;SDS011;9428;50.950;6.912;2024-01-25T04:18:06;42.20;;;7.63;;
18596;SDS011;9428;50.950;6.912;2024-01-25T04:20:55;34.60;;;6.73;;
18596;SDS011;9428;50.950;6.912;2024-01-25T04:23:43;42.67;;;7.50;;
18596;SDS011;9428;50.950;6.912;2024-01-25T04:26:32;44.58;;;6.85;;
18596;SDS011;9428;50.950;6.912;2024-01-25T04:29:19;41.53;;;8.02;;
18596;SDS011;9428;50.950;6.912;2024-01-25T04:32:07;43.47;;;9.13;;
18596;SDS011;9428;50.950;6.912;2024-01-25T04:34:55;38.27;;;7.57;;
18596;SDS011;9428;50.950;6.912;2024-01-25T04:37:43;38.10;;;7.53;;
18596;SDS011;9428;50.950;6.912;2024-01-25T04:40:34;45.00;;;8.13;;
18596;SDS011;9428;50.950;6.912;2024-01-25T04:43:22;33.20;;;7.57;;
18596;SDS011;9428;50.950;6.912;2024-01-25T04:46:09;39.93;;;8.50;;
18596;SDS011;9428;50.950;6.912;2024-01-25T04:48:56;34.00;;;7.23;;
18596;SDS011;9428;50.950;6.912;2024-01-25T04:51:44;45.13;;;8.13;;
18596;SDS011;9428;50.950;6.912;2024-01-25T04:54:32;29.27;;;8.17;;
18596;SDS011;9428;50.950;6.912;2024-01-25T04:57:20;36.70;;;7.03;;
18596;SDS011;9428;50.950;6.912;2024-01-25T05:00:07;42.05;;;7.60;;
18596;SDS011;9428;50.950;6.912;2024-01-25T05:02:55;37.07;;;7.40;;
18596;SDS011;9428;50.950;6.912;2024-01-25T05:05:43;43.43;;;7.90;;
18596;SDS011;9428;50.950;6.912;2024-01-25T05:08:30;39.90;;;7.57;;
18596;SDS011;9428;50.950;6.912;2024-01-25T05:11:19;36.73;;;6.13;;
18596;SDS011;9428;50.950;6.912;2024-01-25T05:14:06;43.63;;;6.72;;
18596;SDS011;9428;50.950;6.912;2024-01-25T05:16:54;43.23;;;7.00;;
18596;SDS011;9428;50.950;6.912;2024-01-25T05:19:41;41.00;;;7.70;;
18596;SDS011;9428;50.950;6.912;2024-01-25T05:22:28;37.00;;;7.43;;
18596;SDS011;9428;50.950;6.912;2024-01-25T05:25:16;48.13;;;8.73;;
18596;SDS011;9428;50.950;6.912;2024-01-25T05:28:05;47.07;;;8.07;;
18596;SDS011;9428;50.950;6.912;2024-01-25T05:30:52;33.03;;;6.77;;
18596;SDS011;9428;50.950;6.912;2024-01-25T05:33:39;42.73;;;6.90;;
18596;SDS011;9428;50.950;6.912;2024-01-25T05:36:27;40.20;;;7.00;;
18596;SDS011;9428;50.950;6.912;2024-01-25T05:39:15;45.05;;;8.07;;
18596;SDS011;9428;50.950;6.912;2024-01-25T05:42:02;32.63;;;7.50;;
18596;SDS011;9428;50.950;6.912;2024-01-25T05:44:52;43.10;;;7.07;;
18596;SDS011;9428;50.950;6.912;2024-01-25T05:47:39;39.77;;;7.80;;
18596;SDS011;9428;50.950;6.912;2024-01-25T05:50:26;39.90;;;7.10;;
18596;SDS011;9428;50.950;6.912;2024-01-25T05:53:14;41.03;;;7.47;;
18596;SDS011;9428;50.950;6.912;2024-01-25T05:56:04;38.33;;;6.87;;
18596;SDS011;9428;50.950;6.912;2024-01-25T05:58:52;42.80;;;7.43;;
18596;SDS011;9428;50.950;6.912;2024-01-25T06:01:41;51.60;;;7.97;;
18596;SDS011;9428;50.950;6.912;2024-01-25T06:04:30;42.80;;;12.97;;
18596;SDS011;9428;50.950;6.912;2024-01-25T06:07:18;53.83;;;14.87;;
18596;SDS011;9428;50.950;6.912;2024-01-25T06:10:06;55.80;;;15.03;;
18596;SDS011;9428;50.950;6.912;2024-01-25T06:12:54;35.30;;;8.43;;
18596;SDS011;9428;50.950;6.912;2024-01-25T06:15:41;48.63;;;9.03;;
18596;SDS011;9428;50.950;6.912;2024-01-25T06:18:30;41.37;;;9.17;;
18596;SDS011;9428;50.950;6.912;2024-01-25T06:21:17;49.23;;;12.93;;
18596;SDS011;9428;50.950;6.912;2024-01-25T06:24:05;37.93;;;12.03;;
18596;SDS011;9428;50.950;6.912;2024-01-25T06:26:53;53.87;;;15.10;;
18596;SDS011;9428;50.950;6.912;2024-01-25T06:29:40;44.10;;;11.17;;
18596;SDS011;9428;50.950;6.912;2024-01-25T06:32:27;42.23;;;8.10;;
18596;SDS011;9428;50.950;6.912;2024-01-25T06:35:16;33.00;;;7.37;;
18596;SDS011;9428;50.950;6.912;2024-01-25T06:38:04;38.03;;;7.63;;
18596;SDS011;9428;50.950;6.912;2024-01-25T06:40:51;33.90;;;8.70;;
18596;SDS011;9428;50.950;6.912;2024-01-25T06:43:39;46.43;;;8.03;;
18596;SDS011;9428;50.950;6.912;2024-01-25T06:46:26;46.17;;;7.90;;
18596;SDS011;9428;50.950;6.912;2024-01-25T06:49:14;35.87;;;7.93;;
18596;SDS011;9428;50.950;6.912;2024-01-25T06:52:05;30.97;;;6.93;;
18596;SDS011;9428;50.950;6.912;2024-01-25T06:54:53;47.43;;;7.40;;
18596;SDS011;9428;50.950;6.912;2024-01-25T06:57:40;39.73;;;7.23;;
18596;SDS011;9428;50.950;6.912;2024-01-25T07:00:27;40.67;;;6.50;;
18596;SDS011;9428;50.950;6.912;2024-01-25T07:03:15;40.70;;;8.00;;
18596;SDS011;9428;50.950;6.912;2024-01-25T07:06:03;38.00;;;7.60;;
18596;SDS011;9428;50.950;6.912;2024-01-25T07:08:52;41.10;;;6.83;;
18596;SDS011;9428;50.950;6.912;2024-01-25T07:11:40;36.17;;;8.37;;
18596;SDS011;9428;50.950;6.912;2024-01-25T07:14:27;41.27;;;8.23;;
18596;SDS011;9428;50.950;6.912;2024-01-25T07:17:14;51.10;;;7.90;;
18596;SDS011;9428;50.950;6.912;2024-01-25T07:20:02;49.40;;;7.97;;
18596;SDS011;9428;50.950;6.912;2024-01-25T07:22:49;41.80;;;8.10;;
18596;SDS011;9428;50.950;6.912;2024-01-25T07:25:38;34.13;;;6.73;;
18596;SDS011;9428;50.950;6.912;2024-01-25T07:28:25;31.30;;;7.00;;
18596;SDS011;9428;50.950;6.912;2024-01-25T07:31:13;42.77;;;8.13;;
18596;SDS011;9428;50.950;6.912;2024-01-25T07:34:00;34.27;;;8.20;;
18596;SDS011;9428;50.950;6.912;2024-01-25T07:36:48;42.57;;;8.17;;
18596;SDS011;9428;50.950;6.912;2024-01-25T07:39:35;36.80;;;7.83;;
18596;SDS011;9428;50.950;6.912;2024-01-25T07:42:24;47.73;;;7.53;;
18596;SDS011;9428;50.950;6.912;2024-01-25T07:45:12;40.10;;;8.37;;
18596;SDS011;9428;50.950;6.912;2024-01-25T07:48:02;40.40;;;7.43;;
18596;SDS011;9428;50.950;6.912;2024-01-25T07:50:50;41.67;;;8.50;;
18596;SDS011;9428;50.950;6.912;2024-01-25T07:53:38;41.13;;;6.83;;
18596;SDS011;9428;50.950;6.912;2024-01-25T07:56:25;35.53;;;7.87;;
18596;SDS011;9428;50.950;6.912;2024-01-25T07:59:14;33.77;;;7.63;;
18596;SDS011;9428;50.950;6.912;2024-01-25T08:02:02;40.40;;;9.40;;
18596;SDS011;9428;50.950;6.912;2024-01-25T08:04:50;46.27;;;8.53;;
18596;SDS011;9428;50.950;6.912;2024-01-25T08:07:37;41.50;;;8.53;;
18596;SDS011;9428;50.950;6.912;2024-01-25T08:10:24;40.87;;;8.23;;
18596;SDS011;9428;50.950;6.912;2024-01-25T08:13:12;43.08;;;8.60;;
18596;SDS011;9428;50.950;6.912;2024-01-25T08:16:01;38.53;;;7.73;;
18596;SDS011;9428;50.950;6.912;2024-01-25T08:18:48;40.70;;;8.32;;
18596;SDS011;9428;50.950;6.912;2024-01-25T08:21:36;45.78;;;8.10;;
18596;SDS011;9428;50.950;6.912;2024-01-25T08:24:23;42.28;;;9.00;;
18596;SDS011;9428;50.950;6.912;2024-01-25T08:27:10;46.42;;;8.95;;
18596;SDS011;9428;50.950;6.912;2024-01-25T08:29:58;43.20;;;9.47;;
18596;SDS011;9428;50.950;6.912;2024-01-25T08:32:46;51.73;;;9.23;;
18596;SDS011;9428;50.950;6.912;2024-01-25T08:35:34;47.28;;;8.90;;
18596;SDS011;9428;50.950;6.912;2024-01-25T08:38:21;38.42;;;9.15;;
18596;SDS011;9428;50.950;6.912;2024-01-25T08:41:09;44.00;;;9.57;;
18596;SDS011;9428;50.950;6.912;2024-01-25T08:43:56;48.10;;;9.73;;
18596;SDS011;9428;50.950;6.912;2024-01-25T08:46:44;45.20;;;9.60;;
18596;SDS011;9428;50.950;6.912;2024-01-25T08:49:32;46.40;;;10.20;;
18596;SDS011;9428;50.950;6.912;2024-01-25T08:52:27;48.83;;;10.10;;
18596;SDS011;9428;50.950;6.912;2024-01-25T08:55:14;45.92;;;10.75;;
18596;SDS011;9428;50.950;6.912;2024-01-25T08:58:01;36.35;;;9.07;;
18596;SDS011;9428;50.950;6.912;2024-01-25T09:00:49;48.20;;;9.85;;
18596;SDS011;9428;50.950;6.912;2024-01-25T09:03:36;42.15;;;10.60;;
18596;SDS011;9428;50.950;6.912;2024-01-25T09:06:25;39.07;;;10.77;;
18596;SDS011;9428;50.950;6.912;2024-01-25T09:09:12;50.50;;;12.67;;
18596;SDS011;9428;50.950;6.912;2024-01-25T09:12:00;47.97;;;11.40;;
18596;SDS011;9428;50.950;6.912;2024-01-25T09:14:47;38.70;;;10.75;;
18596;SDS011;9428;50.950;6.912;2024-01-25T09:17:34;50.58;;;12.45;;
18596;SDS011;9428;50.950;6.912;2024-01-25T09:20:22;39.80;;;11.60;;
18596;SDS011;9428;50.950;6.912;2024-01-25T09:23:10;44.90;;;11.53;;
18596;SDS011;9428;50.950;6.912;2024-01-25T09:25:58;43.33;;;12.13;;
18596;SDS011;9428;50.950;6.912;2024-01-25T09:28:45;44.83;;;12.07;;
18596;SDS011;9428;50.950;6.912;2024-01-25T09:31:32;39.13;;;11.70;;
18596;SDS011;9428;50.950;6.912;2024-01-25T09:34:20;45.53;;;11.17;;
18596;SDS011;9428;50.950;6.912;2024-01-25T09:37:10;48.43;;;11.83;;
18596;SDS011;9428;50.950;6.912;2024-01-25T09:39:59;35.78;;;10.77;;
18596;SDS011;9428;50.950;6.912;2024-01-25T09:42:47;36.08;;;11.13;;
18596;SDS011;9428;50.950;6.912;2024-01-25T09:45:35;45.60;;;12.25;;
18596;SDS011;9428;50.950;6.912;2024-01-25T09:48:26;44.13;;;12.35;;
18596;SDS011;9428;50.950;6.912;2024-01-25T09:51:13;42.83;;;10.70;;
18596;SDS011;9428;50.950;6.912;2024-01-25T09:54:00;42.90;;;12.48;;
18596;SDS011;9428;50.950;6.912;2024-01-25T09:56:51;51.80;;;12.18;;
18596;SDS011;9428;50.950;6.912;2024-01-25T09:59:41;50.47;;;11.52;;
18596;SDS011;9428;50.950;6.912;2024-01-25T10:02:29;39.38;;;12.02;;
18596;SDS011;9428;50.950;6.912;2024-01-25T10:05:16;49.63;;;12.37;;
18596;SDS011;9428;50.950;6.912;2024-01-25T10:08:11;46.25;;;12.73;;
18596;SDS011;9428;50.950;6.912;2024-01-25T10:11:00;37.30;;;11.63;;
18596;SDS011;9428;50.950;6.912;2024-01-25T10:13:49;37.08;;;11.73;;
18596;SDS011;9428;50.950;6.912;2024-01-25T10:16:38;35.77;;;10.73;;
18596;SDS011;9428;50.950;6.912;2024-01-25T10:19:25;47.83;;;12.93;;
18596;SDS011;9428;50.950;6.912;2024-01-25T10:22:13;49.13;;;11.97;;
18596;SDS011;9428;50.950;6.912;2024-01-25T10:25:00;49.40;;;12.80;;
18596;SDS011;9428;50.950;6.912;2024-01-25T10:27:48;52.53;;;12.05;;
18596;SDS011;9428;50.950;6.912;2024-01-25T10:30:37;47.53;;;12.00;;
18596;SDS011;9428;50.950;6.912;2024-01-25T10:33:24;42.10;;;10.95;;
18596;SDS011;9428;50.950;6.912;2024-01-25T10:36:13;43.90;;;12.48;;
18596;SDS011;9428;50.950;6.912;2024-01-25T10:39:00;43.13;;;12.02;;
18596;SDS011;9428;50.950;6.912;2024-01-25T10:41:51;35.40;;;11.50;;
18596;SDS011;9428;50.950;6.912;2024-01-25T10:44:39;40.13;;;12.00;;
18596;SDS011;9428;50.950;6.912;2024-01-25T10:47:29;49.47;;;11.32;;
18596;SDS011;9428;50.950;6.912;2024-01-25T10:50:20;45.28;;;10.43;;
18596;SDS011;9428;50.950;6.912;2024-01-25T10:53:10;36.88;;;10.63;;
18596;SDS011;9428;50.950;6.912;2024-01-25T10:55:57;39.30;;;10.35;;
18596;SDS011;9428;50.950;6.912;2024-01-25T10:58:46;32.88;;;10.27;;
18596;SDS011;9428;50.950;6.912;2024-01-25T11:01:34;37.78;;;10.30;;
18596;SDS011;9428;50.950;6.912;2024-01-25T11:04:23;39.08;;;10.50;;
18596;SDS011;9428;50.950;6.912;2024-01-25T11:07:10;38.03;;;10.95;;
18596;SDS011;9428;50.950;6.912;2024-01-25T11:09:58;34.67;;;9.90;;
18596;SDS011;9428;50.950;6.912;2024-01-25T11:12:47;36.67;;;10.75;;
18596;SDS011;9428;50.950;6.912;2024-01-25T11:15:36;41.65;;;11.27;;
18596;SDS011;9428;50.950;6.912;2024-01-25T11:18:24;39.80;;;11.57;;
18596;SDS011;9428;50.950;6.912;2024-01-25T11:21:14;37.38;;;10.60;;
18596;SDS011;9428;50.950;6.912;2024-01-25T11:24:11;44.25;;;9.98;;
18596;SDS011;9428;50.950;6.912;2024-01-25T11:27:00;37.10;;;9.25;;
18596;SDS011;9428;50.950;6.912;2024-01-25T11:29:47;39.55;;;10.65;;
18596;SDS011;9428;50.950;6.912;2024-01-25T11:32:37;34.25;;;10.38;;
18596;SDS011;9428;50.950;6.912;2024-01-25T11:35:28;34.88;;;10.15;;
18596;SDS011;9428;50.950;6.912;2024-01-25T11:38:17;43.63;;;12.43;;
18596;SDS011;9428;50.950;6.912;2024-01-25T11:41:04;33.30;;;9.75;;
18596;SDS011;9428;50.950;6.912;2024-01-25T11:43:52;44.10;;;11.02;;
18596;SDS011;9428;50.950;6.912;2024-01-25T11:46:39;36.05;;;10.68;;
18596;SDS011;9428;50.950;6.912;2024-01-25T11:49:27;40.75;;;10.60;;
18596;SDS011;9428;50.950;6.912;2024-01-25T11:52:17;31.45;;;9.60;;
18596;SDS011;9428;50.950;6.912;2024-01-25T11:55:07;40.55;;;10.05;;
18596;SDS011;9428;50.950;6.912;2024-01-25T11:57:56;37.55;;;9.13;;
18596;SDS011;9428;50.950;6.912;2024-01-25T12:00:43;39.00;;;9.95;;
18596;SDS011;9428;50.950;6.912;2024-01-25T12:03:31;39.17;;;8.57;;
18596;SDS011;9428;50.950;6.912;2024-01-25T12:06:18;37.08;;;8.60;;
18596;SDS011;9428;50.950;6.912;2024-01-25T12:09:07;41.03;;;9.10;;
18596;SDS011;9428;50.950;6.912;2024-01-25T12:11:56;29.08;;;8.20;;
18596;SDS011;9428;50.950;6.912;2024-01-25T12:14:43;31.70;;;7.95;;
18596;SDS011;9428;50.950;6.912;2024-01-25T12:17:32;37.90;;;7.40;;
18596;SDS011;9428;50.950;6.912;2024-01-25T12:20:21;21.63;;;6.53;;
18596;SDS011;9428;50.950;6.912;2024-01-25T12:23:09;32.95;;;7.45;;
18596;SDS011;9428;50.950;6.912;2024-01-25T12:25:58;25.08;;;7.07;;
18596;SDS011;9428;50.950;6.912;2024-01-25T12:28:47;27.88;;;7.90;;
18596;SDS011;9428;50.950;6.912;2024-01-25T12:31:35;25.77;;;7.57;;
18596;SDS011;9428;50.950;6.912;2024-01-25T12:34:22;32.42;;;7.03;;
18596;SDS011;9428;50.950;6.912;2024-01-25T12:37:10;30.80;;;6.20;;
18596;SDS011;9428;50.950;6.912;2024-01-25T12:39:57;21.95;;;6.45;;
18596;SDS011;9428;50.950;6.912;2024-01-25T12:42:47;29.75;;;7.97;;
18596;SDS011;9428;50.950;6.912;2024-01-25T12:45:36;35.05;;;7.45;;
18596;SDS011;9428;50.950;6.912;2024-01-25T12:48:24;31.25;;;7.70;;
18596;SDS011;9428;50.950;6.912;2024-01-25T12:51:14;39.38;;;8.32;;
18596;SDS011;9428;50.950;6.912;2024-01-25T12:54:02;25.67;;;7.13;;
18596;SDS011;9428;50.950;6.912;2024-01-25T12:56:49;25.92;;;6.15;;
18596;SDS011;9428;50.950;6.912;2024-01-25T12:59:37;28.88;;;7.07;;
18596;SDS011;9428;50.950;6.912;2024-01-25T13:02:25;34.10;;;7.25;;
18596;SDS011;9428;50.950;6.912;2024-01-25T13:05:13;25.38;;;6.97;;
18596;SDS011;9428;50.950;6.912;2024-01-25T13:08:00;35.13;;;6.72;;
18596;SDS011;9428;50.950;6.912;2024-01-25T13:10:48;28.23;;;7.03;;
18596;SDS011;9428;50.950;6.912;2024-01-25T13:13:35;29.33;;;7.10;;
18596;SDS011;9428;50.950;6.912;2024-01-25T13:16:23;26.23;;;5.90;;
18596;SDS011;9428;50.950;6.912;2024-01-25T13:19:12;24.52;;;7.22;;
18596;SDS011;9428;50.950;6.912;2024-01-25T13:21:59;27.20;;;6.35;;
18596;SDS011;9428;50.950;6.912;2024-01-25T13:24:47;21.60;;;5.88;;
18596;SDS011;9428;50.950;6.912;2024-01-25T13:27:34;26.85;;;5.93;;
18596;SDS011;9428;50.950;6.912;2024-01-25T13:30:22;26.10;;;5.82;;
18596;SDS011;9428;50.950;6.912;2024-01-25T13:33:09;26.90;;;6.63;;
18596;SDS011;9428;50.950;6.912;2024-01-25T13:35:58;32.05;;;5.32;;
18596;SDS011;9428;50.950;6.912;2024-01-25T13:38:46;21.00;;;5.85;;
18596;SDS011;9428;50.950;6.912;2024-01-25T13:41:33;24.02;;;5.18;;
18596;SDS011;9428;50.950;6.912;2024-01-25T13:44:20;27.42;;;5.57;;
18596;SDS011;9428;50.950;6.912;2024-01-25T13:47:08;22.17;;;5.18;;
18596;SDS011;9428;50.950;6.912;2024-01-25T13:49:56;25.65;;;6.60;;
18596;SDS011;9428;50.950;6.912;2024-01-25T13:52:44;25.00;;;5.57;;
18596;SDS011;9428;50.950;6.912;2024-01-25T13:55:32;27.33;;;6.15;;
18596;SDS011;9428;50.950;6.912;2024-01-25T13:58:19;24.85;;;5.85;;
18596;SDS011;9428;50.950;6.912;2024-01-25T14:01:07;20.85;;;5.05;;
18596;SDS011;9428;50.950;6.912;2024-01-25T14:03:54;19.75;;;4.57;;
18596;SDS011;9428;50.950;6.912;2024-01-25T14:06:41;21.63;;;4.70;;
18596;SDS011;9428;50.950;6.912;2024-01-25T14:09:30;22.00;;;5.32;;
18596;SDS011;9428;50.950;6.912;2024-01-25T14:12:17;30.33;;;5.93;;
18596;SDS011;9428;50.950;6.912;2024-01-25T14:15:19;30.65;;;6.05;;
18596;SDS011;9428;50.950;6.912;2024-01-25T14:18:06;27.20;;;4.65;;
18596;SDS011;9428;50.950;6.912;2024-01-25T14:20:54;22.70;;;5.13;;
18596;SDS011;9428;50.950;6.912;2024-01-25T14:23:42;22.42;;;5.30;;
18596;SDS011;9428;50.950;6.912;2024-01-25T14:26:33;21.05;;;4.70;;
18596;SDS011;9428;50.950;6.912;2024-01-25T14:29:21;20.40;;;5.32;;
18596;SDS011;9428;50.950;6.912;2024-01-25T14:32:08;27.27;;;5.40;;
18596;SDS011;9428;50.950;6.912;2024-01-25T14:34:56;23.80;;;4.95;;
18596;SDS011;9428;50.950;6.912;2024-01-25T14:37:43;24.17;;;4.88;;
18596;SDS011;9428;50.950;6.912;2024-01-25T14:40:30;21.58;;;4.90;;
18596;SDS011;9428;50.950;6.912;2024-01-25T14:43:19;21.40;;;4.78;;
18596;SDS011;9428;50.950;6.912;2024-01-25T14:46:07;21.23;;;5.18;;
18596;SDS011;9428;50.950;6.912;2024-01-25T14:48:54;23.90;;;5.40;;
18596;SDS011;9428;50.950;6.912;2024-01-25T14:51:43;25.05;;;5.40;;
18596;SDS011;9428;50.950;6.912;2024-01-25T14:54:30;17.65;;;5.10;;
18596;SDS011;9428;50.950;6.912;2024-01-25T14:57:18;17.30;;;4.25;;
18596;SDS011;9428;50.950;6.912;2024-01-25T15:00:08;21.23;;;4.82;;
18596;SDS011;9428;50.950;6.912;2024-01-25T15:03:01;20.58;;;4.68;;
18596;SDS011;9428;50.950;6.912;2024-01-25T15:05:50;23.25;;;5.63;;
18596;SDS011;9428;50.950;6.912;2024-01-25T15:08:41;25.30;;;5.15;;
18596;SDS011;9428;50.950;6.912;2024-01-25T15:11:28;20.95;;;4.78;;
18596;SDS011;9428;50.950;6.912;2024-01-25T15:14:15;21.60;;;4.63;;
18596;SDS011;9428;50.950;6.912;2024-01-25T15:17:04;26.25;;;5.32;;
18596;SDS011;9428;50.950;6.912;2024-01-25T15:19:52;22.80;;;5.10;;
18596;SDS011;9428;50.950;6.912;2024-01-25T15:22:39;17.70;;;4.22;;
18596;SDS011;9428;50.950;6.912;2024-01-25T15:25:29;20.35;;;4.43;;
18596;SDS011;9428;50.950;6.912;2024-01-25T15:28:17;20.17;;;4.95;;
18596;SDS011;9428;50.950;6.912;2024-01-25T15:31:04;19.50;;;4.78;;
18596;SDS011;9428;50.950;6.912;2024-01-25T15:33:53;19.73;;;5.60;;
18596;SDS011;9428;50.950;6.912;2024-01-25T15:36:41;24.83;;;5.28;;
18596;SDS011;9428;50.950;6.912;2024-01-25T15:39:29;24.38;;;4.95;;
18596;SDS011;9428;50.950;6.912;2024-01-25T15:42:17;24.90;;;4.55;;
18596;SDS011;9428;50.950;6.912;2024-01-25T15:45:05;23.85;;;5.00;;
18596;SDS011;9428;50.950;6.912;2024-01-25T15:47:54;26.35;;;4.78;;
18596;SDS011;9428;50.950;6.912;2024-01-25T15:50:42;25.25;;;5.85;;
18596;SDS011;9428;50.950;6.912;2024-01-25T15:53:30;26.55;;;5.35;;
18596;SDS011;9428;50.950;6.912;2024-01-25T15:56:17;15.15;;;4.10;;
18596;SDS011;9428;50.950;6.912;2024-01-25T15:59:05;24.27;;;5.63;;
18596;SDS011;9428;50.950;6.912;2024-01-25T16:01:52;26.42;;;4.88;;
18596;SDS011;9428;50.950;6.912;2024-01-25T16:04:41;26.55;;;6.10;;
18596;SDS011;9428;50.950;6.912;2024-01-25T16:07:30;24.33;;;6.68;;
18596;SDS011;9428;50.950;6.912;2024-01-25T16:10:18;28.52;;;6.63;;
18596;SDS011;9428;50.950;6.912;2024-01-25T16:13:06;22.77;;;5.70;;
18596;SDS011;9428;50.950;6.912;2024-01-25T16:15:54;24.05;;;5.97;;
18596;SDS011;9428;50.950;6.912;2024-01-25T16:18:41;27.50;;;6.15;;
18596;SDS011;9428;50.950;6.912;2024-01-25T16:21:29;21.80;;;5.03;;
18596;SDS011;9428;50.950;6.912;2024-01-25T16:24:18;20.75;;;5.07;;
18596;SDS011;9428;50.950;6.912;2024-01-25T16:27:06;25.80;;;5.85;;
18596;SDS011;9428;50.950;6.912;2024-01-25T16:29:54;28.45;;;6.50;;
18596;SDS011;9428;50.950;6.912;2024-01-25T16:32:41;26.10;;;5.70;;
18596;SDS011;9428;50.950;6.912;2024-01-25T16:35:29;18.33;;;6.07;;
18596;SDS011;9428;50.950;6.912;2024-01-25T16:38:16;25.55;;;6.82;;
18596;SDS011;9428;50.950;6.912;2024-01-25T16:41:05;21.20;;;5.47;;
18596;SDS011;9428;50.950;6.912;2024-01-25T16:43:53;28.42;;;5.72;;
18596;SDS011;9428;50.950;6.912;2024-01-25T16:46:41;33.13;;;6.30;;
18596;SDS011;9428;50.950;6.912;2024-01-25T16:49:28;25.60;;;7.28;;